createdAt,value
2018-07-25T00:02:46.783Z,5.70
2018-07-25T00:07:57.401Z,6.37
2018-07-25T00:13:06.570Z,6.70
2018-07-25T00:18:15.900Z,7.10
2018-07-25T00:23:24.726Z,6.27
2018-07-25T00:28:33.645Z,7.40
2018-07-25T00:33:42.722Z,6.57
2018-07-25T00:38:51.682Z,7.10
2018-07-25T00:44:00.684Z,6.60
2018-07-25T00:49:09.777Z,7.63
2018-07-25T00:54:19.135Z,8.80
2018-07-25T00:59:28.046Z,8.33
2018-07-25T01:04:37.000Z,8.07
2018-07-25T01:09:46.484Z,7.80
2018-07-25T01:14:55.335Z,8.57
2018-07-25T01:20:04.623Z,8.17
2018-07-25T01:25:13.511Z,6.77
2018-07-25T01:30:22.385Z,7.33
2018-07-25T01:35:31.690Z,6.80
2018-07-25T01:40:47.263Z,6.60
2018-07-25T01:45:57.272Z,6.97
2018-07-25T01:51:06.742Z,7.23
2018-07-25T01:56:15.379Z,7.83
2018-07-25T02:01:24.450Z,7.53
2018-07-25T02:06:33.638Z,9.47
2018-07-25T02:11:42.863Z,7.87
2018-07-25T02:16:52.112Z,7.73
2018-07-25T02:22:01.234Z,7.63
2018-07-25T02:27:10.039Z,7.40
2018-07-25T02:32:19.508Z,8.33
2018-07-25T02:37:28.412Z,7.80
2018-07-25T02:42:37.321Z,8.13
2018-07-25T02:47:46.344Z,7.37
2018-07-25T02:52:55.328Z,8.10
2018-07-25T02:58:04.133Z,9.33
2018-07-25T03:03:13.106Z,7.77
2018-07-25T03:08:22.683Z,7.93
2018-07-25T03:13:31.576Z,7.90
2018-07-25T03:18:40.822Z,7.97
2018-07-25T03:23:50.411Z,8.03
2018-07-25T03:28:59.414Z,8.67
2018-07-25T03:34:08.691Z,8.70
2018-07-25T03:39:17.965Z,8.57
2018-07-25T03:44:27.311Z,9.00
2018-07-25T03:49:36.393Z,8.30
2018-07-25T03:54:45.694Z,8.50
2018-07-25T03:59:54.649Z,7.93
2018-07-25T04:05:05.248Z,8.37
2018-07-25T04:10:14.277Z,8.57
2018-07-25T04:15:23.747Z,10.00
2018-07-25T04:20:32.373Z,8.20
2018-07-25T04:25:41.589Z,7.97
2018-07-25T04:30:50.647Z,8.13
2018-07-25T04:36:10.824Z,10.10
2018-07-25T04:41:20.764Z,8.70
2018-07-25T04:46:29.525Z,8.50
2018-07-25T04:51:39.162Z,9.03
2018-07-25T04:56:48.523Z,7.37
2018-07-25T05:01:57.563Z,8.57
2018-07-25T05:07:06.960Z,6.57
2018-07-25T05:12:16.979Z,6.80
2018-07-25T05:17:27.131Z,8.67
2018-07-25T05:22:36.170Z,7.27
2018-07-25T05:27:45.362Z,8.57
2018-07-25T05:32:54.806Z,7.03
2018-07-25T05:38:04.216Z,6.17
2018-07-25T05:43:14.919Z,5.30
2018-07-25T05:48:24.323Z,5.80
2018-07-25T05:53:33.367Z,6.30
2018-07-25T05:58:44.987Z,5.07
2018-07-25T06:03:54.409Z,4.47
2018-07-25T06:09:05.838Z,4.20
2018-07-25T06:14:15.815Z,5.70
2018-07-25T06:19:25.537Z,6.50
2018-07-25T06:24:35.084Z,6.20
2018-07-25T06:29:44.315Z,6.77
2018-07-25T06:34:53.495Z,5.10
2018-07-25T06:40:03.513Z,6.50
2018-07-25T06:45:13.276Z,8.17
2018-07-25T06:50:22.837Z,6.07
2018-07-25T06:55:32.087Z,6.40
2018-07-25T07:00:41.726Z,5.70
2018-07-25T07:05:51.023Z,8.30
2018-07-25T07:11:00.826Z,6.67
2018-07-25T07:16:10.662Z,5.30
2018-07-25T07:21:20.017Z,9.03
2018-07-25T07:26:29.953Z,6.67
2018-07-25T07:31:39.240Z,6.03
2018-07-25T07:36:49.167Z,5.60
2018-07-25T07:41:59.033Z,6.97
2018-07-25T07:47:09.167Z,7.80
2018-07-25T07:52:19.108Z,5.83
2018-07-25T07:57:29.557Z,5.03
2018-07-25T08:02:39.369Z,4.20
2018-07-25T08:07:48.701Z,3.67
2018-07-25T08:12:58.456Z,4.57
2018-07-25T08:18:07.475Z,5.47
2018-07-25T08:23:16.727Z,6.07
2018-07-25T08:28:28.754Z,5.23
2018-07-25T08:33:38.608Z,6.87
2018-07-25T08:38:49.025Z,7.37
2018-07-25T08:43:58.682Z,5.43
2018-07-25T08:49:07.901Z,4.27
2018-07-25T08:54:17.727Z,5.03
2018-07-25T08:59:27.377Z,5.40
2018-07-25T09:04:36.605Z,6.73
2018-07-25T09:09:46.320Z,5.67
2018-07-25T09:14:55.846Z,5.47
2018-07-25T09:20:06.011Z,5.13
2018-07-25T09:25:15.548Z,4.43
2018-07-25T09:30:25.184Z,4.43
2018-07-25T09:35:35.202Z,4.83
2018-07-25T09:40:45.794Z,3.50
2018-07-25T09:45:55.225Z,3.83
2018-07-25T09:51:05.290Z,3.37
2018-07-25T09:56:15.467Z,4.60
2018-07-25T10:01:25.173Z,3.90
2018-07-25T10:06:36.116Z,6.43
2018-07-25T10:11:45.899Z,4.00
2018-07-25T10:16:55.764Z,7.00
2018-07-25T10:22:05.899Z,6.20
2018-07-25T10:27:15.590Z,6.90
2018-07-25T10:32:25.305Z,4.33
2018-07-25T10:37:35.333Z,4.13
2018-07-25T10:42:45.574Z,5.63
2018-07-25T10:47:55.285Z,7.60
2018-07-25T10:53:06.500Z,4.13
2018-07-25T10:58:16.488Z,7.83
2018-07-25T11:03:26.278Z,4.97
2018-07-25T11:08:35.524Z,4.37
2018-07-25T11:13:45.413Z,6.90
2018-07-25T11:18:54.408Z,4.10
2018-07-25T11:24:05.084Z,5.40
2018-07-25T11:29:15.057Z,4.83
2018-07-25T11:34:25.010Z,6.83
2018-07-25T11:39:34.754Z,5.70
2018-07-25T11:44:43.930Z,3.27
2018-07-25T11:49:53.828Z,3.20
2018-07-25T11:55:04.506Z,3.10
2018-07-25T12:00:14.516Z,5.63
2018-07-25T12:05:24.337Z,3.33
2018-07-25T12:10:33.314Z,2.73
2018-07-25T12:15:43.182Z,3.27
2018-07-25T12:20:52.339Z,3.13
2018-07-25T12:26:02.246Z,4.03
2018-07-25T12:31:13.631Z,2.70
2018-07-25T12:36:23.135Z,3.07
2018-07-25T12:41:32.844Z,2.40
2018-07-25T12:46:42.306Z,4.27
2018-07-25T12:51:52.153Z,3.40
2018-07-25T12:57:02.400Z,2.87
2018-07-25T13:02:11.795Z,5.00
2018-07-25T13:07:21.519Z,2.40
2018-07-25T13:12:31.285Z,2.37
2018-07-25T13:17:41.214Z,2.83
2018-07-25T13:22:51.090Z,3.83
2018-07-25T13:28:01.127Z,3.73
2018-07-25T13:33:12.561Z,3.03
2018-07-25T13:38:22.722Z,2.17
2018-07-25T13:43:36.563Z,2.10
2018-07-25T13:48:48.883Z,1.80
2018-07-25T13:53:59.797Z,2.37
2018-07-25T13:59:10.443Z,2.50
2018-07-25T14:04:21.534Z,3.40
2018-07-25T14:09:32.723Z,3.63
2018-07-25T14:14:42.858Z,2.10
2018-07-25T14:19:53.024Z,3.60
2018-07-25T14:25:02.167Z,2.80
2018-07-25T14:30:12.200Z,3.37
2018-07-25T14:35:23.059Z,2.27
2018-07-25T14:40:32.340Z,2.20
2018-07-25T14:45:43.019Z,3.70
2018-07-25T14:50:52.922Z,2.63
2018-07-25T14:56:03.744Z,2.33
2018-07-25T15:01:15.469Z,2.80
2018-07-25T15:06:29.563Z,3.77
2018-07-25T15:11:41.609Z,3.60
2018-07-25T15:16:51.667Z,1.97
2018-07-25T15:22:02.536Z,3.00
2018-07-25T15:27:13.007Z,2.27
2018-07-25T15:32:23.115Z,2.37
2018-07-25T15:37:32.281Z,2.20
2018-07-25T15:42:41.715Z,2.03
2018-07-25T15:47:51.696Z,1.93
2018-07-25T15:53:00.874Z,2.70
2018-07-25T15:58:11.285Z,2.77
2018-07-25T16:03:20.822Z,4.10
2018-07-25T16:08:29.937Z,3.40
2018-07-25T16:13:39.865Z,3.93
2018-07-25T16:18:49.615Z,2.30
2018-07-25T16:23:59.846Z,2.30
2018-07-25T16:29:09.823Z,2.30
2018-07-25T16:34:19.890Z,2.90
2018-07-25T16:39:30.671Z,3.97
2018-07-25T16:44:40.562Z,3.37
2018-07-25T16:49:50.591Z,3.77
2018-07-25T16:54:59.803Z,5.40
2018-07-25T17:00:09.362Z,3.10
2018-07-25T17:05:19.063Z,2.87
2018-07-25T17:10:29.075Z,4.70
2018-07-25T17:15:40.017Z,4.60
2018-07-25T17:20:49.455Z,2.93
2018-07-25T17:25:59.256Z,2.20
2018-07-25T17:31:09.187Z,4.17
2018-07-25T17:36:19.586Z,4.57
2018-07-25T17:41:29.073Z,3.43
2018-07-25T17:46:39.261Z,2.77
2018-07-25T17:51:49.082Z,4.53
2018-07-25T17:56:59.220Z,2.53
2018-07-25T18:02:08.645Z,3.23
2018-07-25T18:07:18.439Z,3.37
2018-07-25T18:12:28.443Z,4.17
2018-07-25T18:17:38.346Z,4.13
2018-07-25T18:22:48.597Z,3.53
2018-07-25T18:27:58.381Z,3.50
2018-07-25T18:33:08.309Z,4.47
2018-07-25T18:38:18.882Z,4.47
2018-07-25T18:43:29.086Z,6.03
2018-07-25T18:48:38.763Z,5.23
2018-07-25T18:53:50.698Z,4.13
2018-07-25T18:58:59.865Z,8.23
2018-07-25T19:04:15.827Z,5.47
2018-07-25T19:09:25.612Z,3.17
2018-07-25T19:14:34.852Z,5.33
2018-07-25T19:19:45.424Z,4.23
2018-07-25T19:24:55.017Z,4.87
2018-07-25T19:30:05.524Z,5.33
2018-07-25T19:35:14.483Z,5.30
2018-07-25T19:40:23.393Z,4.20
2018-07-25T19:45:33.034Z,4.63
2018-07-25T19:50:44.784Z,5.37
2018-07-25T19:55:55.448Z,6.60
2018-07-25T20:01:06.302Z,5.83
2018-07-25T20:06:15.365Z,4.93
2018-07-25T20:11:25.500Z,4.23
2018-07-25T20:16:35.115Z,5.47
2018-07-25T20:21:44.534Z,8.43
2018-07-25T20:26:53.905Z,7.20
2018-07-25T20:32:04.570Z,5.57
2018-07-25T20:37:19.708Z,4.73
2018-07-25T20:42:31.135Z,4.27
2018-07-25T20:47:40.229Z,4.33
2018-07-25T20:52:50.361Z,4.43
2018-07-25T20:58:00.890Z,5.23
2018-07-25T21:03:09.680Z,10.33
2018-07-25T21:08:20.131Z,8.90
2018-07-25T21:13:29.419Z,5.23
2018-07-25T21:18:38.373Z,5.87
2018-07-25T21:23:47.471Z,5.03
2018-07-25T21:28:56.562Z,5.67
2018-07-25T21:34:05.358Z,4.87
2018-07-25T21:39:14.469Z,3.93
2018-07-25T21:44:23.504Z,6.30
2018-07-25T21:49:32.267Z,4.50
2018-07-25T21:54:41.181Z,6.13
2018-07-25T21:59:50.278Z,5.43
2018-07-25T22:04:59.568Z,6.47
2018-07-25T22:10:09.628Z,5.23
2018-07-25T22:15:19.232Z,6.17
2018-07-25T22:20:28.380Z,5.70
2018-07-25T22:25:37.604Z,5.37
2018-07-25T22:30:47.047Z,4.77
2018-07-25T22:35:56.722Z,7.10
2018-07-25T22:41:05.828Z,5.67
2018-07-25T22:46:15.781Z,6.00
2018-07-25T22:51:24.933Z,5.50
2018-07-25T22:56:33.653Z,4.97
2018-07-25T23:01:43.733Z,5.20
2018-07-25T23:06:52.936Z,6.53
2018-07-25T23:12:01.911Z,6.23
2018-07-25T23:17:11.065Z,6.17
2018-07-25T23:22:20.470Z,5.53
2018-07-25T23:27:29.708Z,7.40
2018-07-25T23:32:38.866Z,5.77
2018-07-25T23:37:48.455Z,6.13
2018-07-25T23:42:57.164Z,9.13
2018-07-25T23:48:06.577Z,7.67
2018-07-25T23:53:15.384Z,6.13
2018-07-25T23:58:24.511Z,7.53
